createdAt,value
2018-12-25T00:01:32.495Z,3.90
2018-12-25T00:04:01.670Z,3.83
2018-12-25T00:06:30.938Z,3.43
2018-12-25T00:09:00.069Z,3.70
2018-12-25T00:11:29.233Z,3.87
2018-12-25T00:13:58.354Z,3.60
2018-12-25T00:16:27.505Z,3.63
2018-12-25T00:18:56.669Z,3.70
2018-12-25T00:21:25.870Z,3.80
2018-12-25T00:23:54.989Z,3.80
2018-12-25T00:26:24.132Z,3.60
2018-12-25T00:28:53.257Z,2.93
2018-12-25T00:31:22.398Z,3.80
2018-12-25T00:33:51.919Z,3.30
2018-12-25T00:36:21.047Z,3.13
2018-12-25T00:38:50.186Z,3.40
2018-12-25T00:41:19.362Z,3.17
2018-12-25T00:43:48.808Z,3.13
2018-12-25T00:46:17.933Z,3.13
2018-12-25T00:48:47.115Z,4.27
2018-12-25T00:51:16.250Z,3.90
2018-12-25T00:53:45.403Z,3.83
2018-12-25T00:56:14.689Z,3.87
2018-12-25T00:58:43.834Z,3.80
2018-12-25T01:01:13.097Z,3.70
2018-12-25T01:03:42.224Z,4.00
2018-12-25T01:06:11.414Z,3.93
2018-12-25T01:08:40.562Z,3.80
2018-12-25T01:11:09.685Z,4.10
2018-12-25T01:13:38.811Z,3.83
2018-12-25T01:16:08.268Z,3.50
2018-12-25T01:18:37.582Z,3.60
2018-12-25T01:21:06.733Z,3.53
2018-12-25T01:23:35.957Z,3.87
2018-12-25T01:26:05.114Z,3.47
2018-12-25T01:28:34.432Z,3.07
2018-12-25T01:31:03.614Z,3.50
2018-12-25T01:33:32.822Z,3.27
2018-12-25T01:36:01.990Z,3.47
2018-12-25T01:38:31.139Z,3.87
2018-12-25T01:41:00.353Z,3.50
2018-12-25T01:43:29.518Z,3.13
2018-12-25T01:45:58.728Z,3.90
2018-12-25T01:48:27.861Z,4.43
2018-12-25T01:50:57.029Z,3.97
2018-12-25T01:53:26.345Z,4.60
2018-12-25T01:55:55.490Z,4.80
2018-12-25T01:58:24.642Z,4.90
2018-12-25T02:00:54.078Z,4.27
2018-12-25T02:03:23.241Z,4.70
2018-12-25T02:05:52.637Z,4.43
2018-12-25T02:08:21.890Z,5.13
2018-12-25T02:10:51.050Z,5.03
2018-12-25T02:13:20.272Z,5.57
2018-12-25T02:15:49.518Z,5.03
2018-12-25T02:18:18.706Z,4.37
2018-12-25T02:20:47.926Z,4.13
2018-12-25T02:23:17.097Z,4.57
2018-12-25T02:25:46.261Z,4.60
2018-12-25T02:28:15.502Z,4.27
2018-12-25T02:30:44.634Z,4.70
2018-12-25T02:33:13.885Z,4.97
2018-12-25T02:35:43.076Z,4.63
2018-12-25T02:38:12.285Z,4.60
2018-12-25T02:40:41.458Z,4.83
2018-12-25T02:43:10.623Z,3.93
2018-12-25T02:45:39.931Z,4.20
2018-12-25T02:48:09.761Z,4.30
2018-12-25T02:50:39.228Z,4.77
2018-12-25T02:53:08.718Z,4.00
2018-12-25T02:55:38.078Z,4.33
2018-12-25T02:58:07.220Z,4.10
2018-12-25T03:00:36.439Z,4.07
2018-12-25T03:03:05.585Z,4.03
2018-12-25T03:05:35.110Z,3.80
2018-12-25T03:08:04.246Z,3.97
2018-12-25T03:10:33.406Z,3.57
2018-12-25T03:13:03.004Z,4.07
2018-12-25T03:15:32.175Z,3.50
2018-12-25T03:18:01.310Z,3.83
2018-12-25T03:20:30.473Z,3.90
2018-12-25T03:22:59.628Z,4.20
2018-12-25T03:25:28.970Z,3.70
2018-12-25T03:27:58.126Z,3.93
2018-12-25T03:30:27.301Z,3.77
2018-12-25T03:32:56.488Z,3.80
2018-12-25T03:35:25.691Z,3.80
2018-12-25T03:37:54.854Z,3.97
2018-12-25T03:40:24.065Z,4.10
2018-12-25T03:42:53.210Z,3.77
2018-12-25T03:45:22.332Z,4.17
2018-12-25T03:47:51.550Z,3.70
2018-12-25T03:50:20.962Z,3.27
2018-12-25T03:52:50.098Z,3.27
2018-12-25T03:55:19.240Z,3.30
2018-12-25T03:57:48.758Z,3.53
2018-12-25T04:00:17.906Z,3.67
2018-12-25T04:02:47.033Z,3.40
2018-12-25T04:05:16.456Z,3.50
2018-12-25T04:07:45.607Z,3.37
2018-12-25T04:10:14.739Z,3.37
2018-12-25T04:12:43.918Z,3.53
2018-12-25T04:15:13.146Z,2.90
2018-12-25T04:17:42.334Z,2.77
2018-12-25T04:20:19.666Z,3.33
2018-12-25T04:22:42.452Z,3.53
2018-12-25T04:25:11.889Z,3.00
2018-12-25T04:27:41.025Z,3.20
2018-12-25T04:30:10.254Z,3.30
2018-12-25T04:32:39.481Z,3.20
2018-12-25T04:35:08.649Z,2.30
2018-12-25T04:37:37.806Z,3.03
2018-12-25T04:40:07.186Z,2.97
2018-12-25T04:42:36.318Z,2.70
2018-12-25T04:45:05.549Z,2.63
2018-12-25T04:47:34.755Z,2.70
2018-12-25T04:50:04.074Z,2.70
2018-12-25T04:52:33.310Z,2.60
2018-12-25T04:55:02.486Z,2.60
2018-12-25T04:57:31.865Z,2.40
2018-12-25T05:00:01.078Z,1.97
2018-12-25T05:02:30.229Z,1.93
2018-12-25T05:04:59.391Z,1.93
2018-12-25T05:07:28.525Z,2.03
2018-12-25T05:09:57.749Z,2.10
2018-12-25T05:12:27.391Z,2.10
2018-12-25T05:14:56.524Z,2.00
2018-12-25T05:17:25.738Z,1.70
2018-12-25T05:19:55.265Z,1.57
2018-12-25T05:22:24.425Z,1.23
2018-12-25T05:24:53.558Z,1.70
2018-12-25T05:27:22.929Z,1.20
2018-12-25T05:29:52.120Z,1.33
2018-12-25T05:32:21.245Z,1.20
2018-12-25T05:34:50.400Z,1.50
2018-12-25T05:37:19.618Z,1.30
2018-12-25T05:39:48.752Z,1.30
2018-12-25T05:42:17.906Z,1.40
2018-12-25T05:44:47.273Z,1.20
2018-12-25T05:47:16.403Z,1.30
2018-12-25T05:49:45.569Z,1.30
2018-12-25T05:52:14.713Z,1.47
2018-12-25T05:54:43.874Z,1.03
2018-12-25T05:57:13.088Z,2.53
2018-12-25T05:59:42.237Z,1.10
2018-12-25T06:02:11.407Z,1.30
2018-12-25T06:04:40.566Z,1.20
2018-12-25T06:07:10.204Z,1.30
2018-12-25T06:09:39.513Z,1.30
2018-12-25T06:12:08.686Z,1.20
2018-12-25T06:14:38.117Z,1.10
2018-12-25T06:17:07.689Z,1.23
2018-12-25T06:19:36.831Z,1.30
2018-12-25T06:22:05.978Z,1.30
2018-12-25T06:24:35.264Z,1.70
2018-12-25T06:27:04.373Z,1.17
2018-12-25T06:29:33.554Z,1.03
2018-12-25T06:32:02.744Z,1.00
2018-12-25T06:34:31.900Z,1.30
2018-12-25T06:37:01.052Z,1.40
2018-12-25T06:39:30.546Z,1.40
2018-12-25T06:41:59.712Z,1.70
2018-12-25T06:44:29.011Z,1.63
2018-12-25T06:46:58.733Z,1.47
2018-12-25T06:49:28.200Z,1.33
2018-12-25T06:51:58.088Z,1.47
2018-12-25T06:54:27.603Z,1.10
2018-12-25T06:56:56.841Z,1.60
2018-12-25T06:59:25.974Z,1.70
2018-12-25T07:01:55.917Z,1.40
2018-12-25T07:04:25.053Z,1.33
2018-12-25T07:06:54.286Z,1.40
2018-12-25T07:09:23.816Z,1.43
2018-12-25T07:11:53.065Z,1.60
2018-12-25T07:14:22.205Z,1.73
2018-12-25T07:16:51.645Z,2.20
2018-12-25T07:19:20.874Z,1.57
2018-12-25T07:21:50.013Z,1.17
2018-12-25T07:24:25.057Z,1.47
2018-12-25T07:26:54.851Z,1.10
2018-12-25T07:29:24.002Z,1.33
2018-12-25T07:31:53.421Z,1.50
2018-12-25T07:34:22.659Z,1.70
2018-12-25T07:36:51.879Z,1.60
2018-12-25T07:39:21.042Z,1.33
2018-12-25T07:41:50.253Z,1.80
2018-12-25T07:44:19.414Z,1.80
2018-12-25T07:46:48.553Z,1.53
2018-12-25T07:49:17.804Z,1.60
2018-12-25T07:51:47.040Z,2.00
2018-12-25T07:54:16.182Z,1.50
2018-12-25T07:56:45.407Z,2.00
2018-12-25T07:59:14.683Z,1.90
2018-12-25T08:01:43.814Z,1.70
2018-12-25T08:04:13.423Z,2.07
2018-12-25T08:06:42.622Z,1.87
2018-12-25T08:09:11.829Z,1.60
2018-12-25T08:11:40.978Z,1.70
2018-12-25T08:14:10.211Z,2.30
2018-12-25T08:16:39.336Z,1.63
2018-12-25T08:19:08.538Z,1.67
2018-12-25T08:21:37.842Z,1.70
2018-12-25T08:24:06.970Z,1.67
2018-12-25T08:26:36.138Z,1.57
2018-12-25T08:29:05.282Z,1.80
2018-12-25T08:31:34.458Z,1.93
2018-12-25T08:34:03.638Z,1.73
2018-12-25T08:36:33.085Z,1.87
2018-12-25T08:39:02.289Z,1.60
2018-12-25T08:41:31.475Z,1.80
2018-12-25T08:44:00.771Z,1.80
2018-12-25T08:46:30.136Z,1.93
2018-12-25T08:48:59.602Z,1.80
2018-12-25T08:51:28.813Z,1.80
2018-12-25T08:53:58.055Z,1.90
2018-12-25T08:56:27.277Z,1.90
2018-12-25T08:58:56.511Z,2.10
2018-12-25T09:01:25.733Z,1.80
2018-12-25T09:03:54.870Z,1.80
2018-12-25T09:06:24.100Z,1.63
2018-12-25T09:08:53.710Z,1.67
2018-12-25T09:11:22.915Z,1.10
2018-12-25T09:13:52.142Z,1.50
2018-12-25T09:16:21.306Z,1.90
2018-12-25T09:18:50.793Z,1.60
2018-12-25T09:21:19.969Z,1.67
2018-12-25T09:23:49.175Z,1.40
2018-12-25T09:26:18.579Z,1.30
2018-12-25T09:28:47.705Z,1.33
2018-12-25T09:31:16.837Z,1.50
2018-12-25T09:33:45.993Z,1.60
2018-12-25T09:36:15.480Z,1.67
2018-12-25T09:38:44.613Z,1.40
2018-12-25T09:41:13.782Z,1.63
2018-12-25T09:43:42.998Z,1.60
2018-12-25T09:46:12.341Z,1.90
2018-12-25T09:48:41.615Z,1.30
2018-12-25T09:51:11.162Z,1.50
2018-12-25T09:53:40.296Z,1.77
2018-12-25T09:56:09.581Z,1.50
2018-12-25T09:58:38.910Z,1.30
2018-12-25T10:01:08.076Z,1.70
2018-12-25T10:03:37.265Z,1.43
2018-12-25T10:06:06.406Z,1.63
2018-12-25T10:08:35.902Z,1.77
2018-12-25T10:11:05.369Z,1.67
2018-12-25T10:13:34.494Z,1.50
2018-12-25T10:16:03.758Z,1.70
2018-12-25T10:18:33.017Z,1.83
2018-12-25T10:21:02.152Z,1.53
2018-12-25T10:23:31.600Z,1.33
2018-12-25T10:26:00.722Z,1.50
2018-12-25T10:28:30.438Z,2.03
2018-12-25T10:30:59.718Z,1.50
2018-12-25T10:33:28.992Z,2.07
2018-12-25T10:35:58.146Z,1.80
2018-12-25T10:38:27.762Z,1.90
2018-12-25T10:40:56.970Z,1.83
2018-12-25T10:43:26.214Z,1.80
2018-12-25T10:45:55.396Z,1.53
2018-12-25T10:48:24.695Z,1.40
2018-12-25T10:50:53.830Z,1.70
2018-12-25T10:53:22.988Z,1.53
2018-12-25T10:55:52.331Z,1.40
2018-12-25T10:58:21.457Z,1.50
2018-12-25T11:00:54.618Z,1.40
2018-12-25T11:03:23.871Z,1.90
2018-12-25T11:05:53.007Z,1.50
2018-12-25T11:08:22.237Z,1.50
2018-12-25T11:10:51.468Z,1.50
2018-12-25T11:13:20.646Z,1.70
2018-12-25T11:15:49.782Z,1.30
2018-12-25T11:18:18.923Z,1.37
2018-12-25T11:20:48.090Z,1.40
2018-12-25T11:23:17.248Z,1.73
2018-12-25T11:25:46.377Z,1.97
2018-12-25T11:28:15.526Z,1.50
2018-12-25T11:30:44.685Z,1.47
2018-12-25T11:33:13.813Z,1.53
2018-12-25T11:35:43.009Z,1.50
2018-12-25T11:38:12.162Z,1.30
2018-12-25T11:40:41.361Z,1.00
2018-12-25T11:43:11.618Z,1.27
2018-12-25T11:45:41.036Z,1.50
2018-12-25T11:48:10.362Z,1.40
2018-12-25T11:50:39.523Z,1.13
2018-12-25T11:53:08.738Z,1.07
2018-12-25T11:55:37.894Z,1.40
2018-12-25T11:58:07.040Z,1.10
2018-12-25T12:00:36.625Z,1.43
2018-12-25T12:03:05.877Z,1.17
2018-12-25T12:05:35.483Z,1.27
2018-12-25T12:08:04.712Z,0.80
2018-12-25T12:10:33.873Z,1.30
2018-12-25T12:13:03.289Z,1.40
2018-12-25T12:15:32.500Z,1.53
2018-12-25T12:18:01.803Z,1.20
2018-12-25T12:20:31.027Z,1.30
2018-12-25T12:23:00.178Z,1.50
2018-12-25T12:25:29.402Z,1.30
2018-12-25T12:27:58.654Z,1.30
2018-12-25T12:30:27.810Z,1.30
2018-12-25T12:32:57.101Z,1.20
2018-12-25T12:35:26.262Z,1.30
2018-12-25T12:37:55.814Z,1.77
2018-12-25T12:40:44.080Z,1.37
2018-12-25T12:43:13.323Z,1.40
2018-12-25T12:45:42.473Z,1.67
2018-12-25T12:48:11.718Z,1.93
2018-12-25T12:50:40.862Z,1.67
2018-12-25T12:53:10.005Z,1.60
2018-12-25T12:55:39.162Z,2.00
2018-12-25T12:58:08.314Z,1.50
2018-12-25T13:00:37.814Z,1.60
2018-12-25T13:03:07.042Z,2.20
2018-12-25T13:05:36.209Z,1.50
2018-12-25T13:08:05.396Z,1.60
2018-12-25T13:10:34.553Z,1.53
2018-12-25T13:13:03.697Z,1.70
2018-12-25T13:15:33.214Z,1.70
2018-12-25T13:18:02.422Z,1.40
2018-12-25T13:20:31.577Z,1.87
2018-12-25T13:23:00.742Z,1.60
2018-12-25T13:25:29.884Z,1.50
2018-12-25T13:27:59.098Z,1.80
2018-12-25T13:30:28.472Z,1.70
2018-12-25T13:32:57.694Z,1.50
2018-12-25T13:35:26.966Z,1.40
2018-12-25T13:37:56.310Z,1.70
2018-12-25T13:40:25.595Z,1.80
2018-12-25T13:42:54.918Z,1.50
2018-12-25T13:45:24.097Z,1.90
2018-12-25T13:47:53.233Z,1.50
2018-12-25T13:50:22.433Z,1.40
2018-12-25T13:52:51.935Z,1.40
2018-12-25T13:55:21.094Z,1.67
2018-12-25T13:57:50.246Z,1.93
2018-12-25T14:00:19.497Z,1.50
2018-12-25T14:02:49.094Z,1.50
2018-12-25T14:05:18.281Z,1.20
2018-12-25T14:07:47.414Z,1.37
2018-12-25T14:10:16.553Z,1.00
2018-12-25T14:12:46.170Z,1.50
2018-12-25T14:15:15.389Z,1.40
2018-12-25T14:17:44.531Z,1.73
2018-12-25T14:20:14.112Z,1.30
2018-12-25T14:22:43.294Z,1.70
2018-12-25T14:25:12.535Z,1.60
2018-12-25T14:27:41.701Z,1.20
2018-12-25T14:30:10.937Z,1.53
2018-12-25T14:32:40.130Z,1.60
2018-12-25T14:35:09.316Z,1.83
2018-12-25T14:37:38.546Z,1.60
2018-12-25T14:40:07.770Z,1.70
2018-12-25T14:42:36.908Z,1.93
2018-12-25T14:45:06.674Z,1.73
2018-12-25T14:47:35.902Z,1.70
2018-12-25T14:50:05.843Z,1.73
2018-12-25T14:52:35.269Z,1.80
2018-12-25T14:55:04.630Z,1.40
2018-12-25T14:57:33.771Z,1.80
2018-12-25T15:00:03.013Z,1.60
2018-12-25T15:02:32.154Z,1.80
2018-12-25T15:05:01.273Z,2.13
2018-12-25T15:07:30.437Z,2.03
2018-12-25T15:09:59.586Z,1.77
2018-12-25T15:12:28.885Z,1.80
2018-12-25T15:14:58.060Z,2.07
2018-12-25T15:17:27.201Z,2.07
2018-12-25T15:19:56.368Z,1.60
2018-12-25T15:22:25.502Z,2.30
2018-12-25T15:24:54.749Z,1.90
2018-12-25T15:27:23.969Z,1.87
2018-12-25T15:29:53.239Z,2.30
2018-12-25T15:32:22.454Z,2.10
2018-12-25T15:34:54.674Z,2.03
2018-12-25T15:37:23.826Z,2.00
2018-12-25T15:39:52.974Z,2.00
2018-12-25T15:42:22.390Z,2.07
2018-12-25T15:44:51.646Z,1.83
2018-12-25T15:47:20.786Z,1.97
2018-12-25T15:49:52.538Z,2.00
2018-12-25T15:52:21.762Z,1.97
2018-12-25T15:54:50.930Z,2.17
2018-12-25T15:57:20.629Z,2.23
2018-12-25T15:59:49.932Z,2.07
2018-12-25T16:02:19.086Z,2.83
2018-12-25T16:04:48.261Z,2.10
2018-12-25T16:07:17.440Z,1.97
2018-12-25T16:09:46.649Z,2.07
2018-12-25T16:12:15.834Z,2.30
2018-12-25T16:14:45.022Z,2.07
2018-12-25T16:17:15.590Z,2.17
2018-12-25T16:19:44.922Z,2.10
2018-12-25T16:22:14.108Z,1.90
2018-12-25T16:24:43.413Z,2.20
2018-12-25T16:27:12.623Z,2.30
2018-12-25T16:29:41.794Z,1.90
2018-12-25T16:32:12.714Z,2.07
2018-12-25T16:34:41.906Z,2.03
2018-12-25T16:37:11.287Z,2.23
2018-12-25T16:39:41.618Z,1.90
2018-12-25T16:42:10.794Z,2.23
2018-12-25T16:44:40.143Z,2.23
2018-12-25T16:47:09.450Z,2.77
2018-12-25T16:49:38.669Z,2.77
2018-12-25T16:52:07.904Z,2.43
2018-12-25T16:54:37.066Z,2.60
2018-12-25T16:57:06.310Z,2.67
2018-12-25T16:59:35.654Z,2.37
2018-12-25T17:02:04.931Z,2.43
2018-12-25T17:04:34.098Z,2.27
2018-12-25T17:07:03.354Z,2.40
2018-12-25T17:09:32.788Z,2.67
2018-12-25T17:12:02.034Z,2.77
2018-12-25T17:14:31.240Z,2.87
2018-12-25T17:17:00.434Z,2.43
2018-12-25T17:19:29.737Z,2.70
2018-12-25T17:21:58.954Z,2.07
2018-12-25T17:24:28.318Z,2.80
2018-12-25T17:26:57.790Z,2.87
2018-12-25T17:29:26.929Z,2.77
2018-12-25T17:31:56.171Z,2.60
2018-12-25T17:34:25.695Z,2.60
2018-12-25T17:36:56.078Z,2.40
2018-12-25T17:39:25.614Z,2.47
2018-12-25T17:41:54.918Z,2.77
2018-12-25T17:44:24.072Z,2.80
2018-12-25T17:46:53.323Z,2.60
2018-12-25T17:49:22.559Z,2.60
2018-12-25T17:51:51.795Z,2.30
2018-12-25T17:54:21.426Z,2.27
2018-12-25T17:56:50.587Z,2.83
2018-12-25T17:59:19.765Z,3.47
2018-12-25T18:01:49.132Z,3.10
2018-12-25T18:04:18.438Z,2.80
2018-12-25T18:06:47.777Z,2.50
2018-12-25T18:09:17.010Z,3.07
2018-12-25T18:11:46.380Z,2.57
2018-12-25T18:14:15.604Z,2.80
2018-12-25T18:16:44.788Z,2.50
2018-12-25T18:19:13.946Z,3.47
2018-12-25T18:21:43.193Z,2.70
2018-12-25T18:24:19.183Z,2.53
2018-12-25T18:26:43.399Z,2.40
2018-12-25T18:29:12.529Z,2.50
2018-12-25T18:31:41.942Z,2.07
2018-12-25T18:34:11.115Z,2.13
2018-12-25T18:36:40.458Z,2.20
2018-12-25T18:39:09.752Z,2.20
2018-12-25T18:41:38.954Z,2.03
2018-12-25T18:44:08.194Z,2.10
2018-12-25T18:46:37.437Z,1.80
2018-12-25T18:49:06.627Z,2.17
2018-12-25T18:51:35.922Z,1.80
2018-12-25T18:54:05.134Z,2.30
2018-12-25T18:56:34.403Z,2.40
2018-12-25T18:59:03.605Z,2.20
2018-12-25T19:01:32.818Z,1.73
2018-12-25T19:04:01.979Z,1.80
2018-12-25T19:06:33.637Z,1.57
2018-12-25T19:09:02.611Z,2.07
2018-12-25T19:11:31.766Z,1.90
2018-12-25T19:14:00.980Z,2.37
2018-12-25T19:16:30.309Z,3.60
2018-12-25T19:18:59.538Z,2.10
2018-12-25T19:21:28.653Z,2.07
2018-12-25T19:24:01.902Z,2.20
2018-12-25T19:26:31.060Z,1.90
2018-12-25T19:29:00.255Z,2.17
2018-12-25T19:31:29.598Z,1.90
2018-12-25T19:33:58.729Z,1.50
2018-12-25T19:36:27.878Z,1.70
2018-12-25T19:38:57.030Z,1.83
2018-12-25T19:41:26.193Z,1.50
2018-12-25T19:43:55.330Z,1.97
2018-12-25T19:46:24.485Z,1.70
2018-12-25T19:48:53.686Z,2.10
2018-12-25T19:51:22.862Z,1.63
2018-12-25T19:53:52.005Z,1.70
2018-12-25T19:56:21.232Z,1.90
2018-12-25T19:58:50.689Z,1.87
2018-12-25T20:01:19.833Z,2.00
2018-12-25T20:03:59.872Z,1.87
2018-12-25T20:07:10.694Z,1.93
2018-12-25T20:10:23.970Z,1.63
2018-12-25T20:13:27.253Z,1.73
2018-12-25T20:16:23.418Z,1.70
2018-12-25T20:19:34.926Z,2.17
2018-12-25T20:22:30.581Z,1.43
2018-12-25T20:25:46.794Z,1.73
2018-12-25T20:28:59.273Z,1.70
2018-12-25T20:32:06.763Z,2.27
2018-12-25T20:35:25.222Z,1.50
2018-12-25T20:38:24.247Z,1.73
2018-12-25T20:41:46.378Z,1.80
2018-12-25T20:45:01.657Z,1.77
2018-12-25T20:48:18.174Z,2.00
2018-12-25T20:51:23.510Z,1.97
2018-12-25T20:54:34.979Z,1.50
2018-12-25T20:57:39.982Z,1.40
2018-12-25T21:00:43.334Z,1.97
2018-12-25T21:04:08.862Z,2.00
2018-12-25T21:06:59.774Z,1.60
2018-12-25T21:10:12.906Z,1.57
2018-12-25T21:13:36.018Z,1.77
2018-12-25T21:16:54.341Z,1.43
2018-12-25T21:20:03.446Z,1.33
2018-12-25T21:23:18.802Z,1.50
2018-12-25T21:26:43.045Z,1.40
2018-12-25T21:29:12.206Z,1.43
2018-12-25T21:31:41.534Z,1.50
2018-12-25T21:34:10.877Z,1.40
2018-12-25T21:36:41.390Z,1.43
2018-12-25T21:39:10.542Z,1.53
2018-12-25T21:41:40.011Z,1.50
2018-12-25T21:44:12.257Z,1.20
2018-12-25T21:46:41.393Z,3.77
2018-12-25T21:49:13.497Z,2.30
2018-12-25T21:51:42.834Z,1.40
2018-12-25T21:54:12.278Z,1.50
2018-12-25T21:56:41.640Z,1.20
2018-12-25T21:59:10.759Z,2.00
2018-12-25T22:01:39.950Z,1.70
2018-12-25T22:04:09.490Z,1.30
2018-12-25T22:06:38.614Z,1.77
2018-12-25T22:09:08.045Z,1.60
2018-12-25T22:11:37.323Z,1.43
2018-12-25T22:14:06.458Z,1.87
2018-12-25T22:16:35.649Z,1.60
2018-12-25T22:19:04.785Z,2.03
2018-12-25T22:21:34.134Z,1.60
2018-12-25T22:24:03.329Z,1.90
2018-12-25T22:26:34.381Z,1.80
2018-12-25T22:29:03.526Z,1.80
2018-12-25T22:31:32.649Z,2.03
2018-12-25T22:34:01.803Z,2.07
2018-12-25T22:36:33.062Z,1.80
2018-12-25T22:39:02.273Z,1.90
2018-12-25T22:41:31.402Z,1.73
2018-12-25T22:44:00.562Z,1.80
2018-12-25T22:46:29.685Z,1.90
2018-12-25T22:48:58.894Z,1.70
2018-12-25T22:51:28.058Z,1.80
2018-12-25T22:53:57.217Z,2.23
2018-12-25T22:56:26.366Z,1.83
2018-12-25T22:58:55.578Z,2.07
2018-12-25T23:01:24.706Z,1.70
2018-12-25T23:03:54.183Z,1.63
2018-12-25T23:06:23.336Z,2.10
2018-12-25T23:08:52.501Z,2.13
2018-12-25T23:11:21.642Z,2.00
2018-12-25T23:13:50.810Z,2.00
2018-12-25T23:16:19.966Z,2.23
2018-12-25T23:18:49.172Z,1.83
2018-12-25T23:21:18.415Z,2.00
2018-12-25T23:23:47.551Z,2.10
2018-12-25T23:26:17.054Z,2.03
2018-12-25T23:28:46.236Z,2.30
2018-12-25T23:31:15.447Z,1.97
2018-12-25T23:33:44.657Z,2.27
2018-12-25T23:36:14.369Z,2.13
2018-12-25T23:38:43.624Z,1.90
2018-12-25T23:41:12.738Z,2.03
2018-12-25T23:43:41.974Z,1.90
2018-12-25T23:46:11.161Z,2.20
2018-12-25T23:48:40.289Z,2.20
2018-12-25T23:51:09.802Z,1.87
2018-12-25T23:53:38.938Z,2.07
2018-12-25T23:56:08.360Z,2.27
2018-12-25T23:58:37.502Z,1.87
